עמוד ראשי
METAR-TAF:

METAR-TAF

שדות תעופה :

Dalcahue, צ'ילה

קו רוחב: 42-20-25S, קו אורך: 073-42-56W, גובה: 161מטר

תצפית מזג אוויר נוכחית

הדו"ח נערך לפני 1 שעות ו 17דקות, בשעה 10:00 UTC
רוח 4קשר מכיוון דרום
טמפרטורת 2 צלסיוס
לחות 100%
לחץ 1023 hPa
ראות: 2700מטר
אד,

METAR: SCPQ 241000Z AUTO 19004KT 2700 BR VV001 02/02 Q1023

זמן: 07:17 (11:17 UTC)

תחזית

הדו"ח נערך לפני 25 שעות ו 7דקות, בשעה 10:10 UTC
תחזית בתוקף מ 23 ב 12 UTC עד 23 ב 24 UTC
רוח 6קשר מכיוון צפון
ראות 10 קילומטר או יותר
מעונן בגובה 400רגל
זמנית מ -
23 ב 12 UTC עד 23 ב 14 UTC
ראות: 3000מטר
עננים בינוניים בגובה 100רגל
אד
יעשה מ
23 ב 17 UTC עד 23 ב 19 UTC
עננים בינוניים בגובה 1500רגל
מעונן בגובה 6000רגל

TAF: SCPQ 231010Z 2312/2324 36006KT 9999 OVC004 TN04/2312Z TX08/2318Z TEMPO 2312/2314 3000 BR BKN001 BECMG 2317/2319 BKN015 OVC060

תצפיות ותחזיות מזג אוויר לגבי יותר מ- 4,000 שדות תעופה ברחבי העולם. דוחות METAR ו- TAF.

התחנות הזמינות מסומנות בנקודות צהובות ואדומות על גבי המפה.

העבר את העכבר לנקודה הצבעונית על מנת לראות את שם התחנה.

לאחר מכן, לחץ כדי לראות את תוכן ואת תחזיות מזג האוויר.

כדי לשנות את המפה: לחץ על הכפתורים הירוקים עם הפלוס השחור כדי להתקרב; על הכפתור הירוק עם המקף כדי להתרחק; או בחיצים הירוקים למפות סמוכות.


METAR-TAF: